Time;durP1;ratioP1;P1;durP2;ratioP2;P2;SDS_P1;SDS_P2;PMS_P1;PMS_P2;Temp;Humidity;BMP_temperature;BMP_pressure;BME280_temperature;BME280_humidity;BME280_pressure;Samples;Min_cycle;Max_cycle;Signal;HPM_P1;HPM_P2
2021/07/16 00:01:59;;;;;;;17.63;8.05;;;25.40;60.20;;;;;;5019229;28;20484;-42
2021/07/16 00:04:24;;;;;;;11.93;7.95;;;25.40;59.70;;;;;;5018807;28;20353;-42
2021/07/16 00:06:50;;;;;;;9.30;7.60;;;25.40;59.60;;;;;;5019011;28;20064;-43
2021/07/16 00:09:17;;;;;;;11.70;7.30;;;25.40;59.50;;;;;;5018928;28;20042;-44
2021/07/16 00:11:42;;;;;;;11.32;7.88;;;25.40;59.50;;;;;;5019199;28;20034;-44
2021/07/16 00:14:08;;;;;;;15.63;8.20;;;25.40;59.40;;;;;;5018773;28;20068;-43
2021/07/16 00:16:34;;;;;;;10.40;7.53;;;25.40;59.40;;;;;;5018710;28;20041;-44
2021/07/16 00:19:00;;;;;;;10.63;8.43;;;25.40;59.30;;;;;;5018796;28;20038;-43
2021/07/16 00:21:26;;;;;;;17.17;9.50;;;25.40;59.40;;;;;;5018747;28;20076;-45
2021/07/16 00:23:52;;;;;;;10.93;8.23;;;25.40;59.50;;;;;;5017876;28;20410;-46
2021/07/16 00:26:18;;;;;;;9.70;7.65;;;25.40;59.50;;;;;;5018887;28;20042;-43
2021/07/16 00:28:44;;;;;;;14.35;7.95;;;25.30;59.40;;;;;;5018035;28;20070;-42
2021/07/16 00:31:11;;;;;;;12.18;8.32;;;25.40;59.40;;;;;;5017759;28;20084;-43
2021/07/16 00:33:36;;;;;;;15.98;8.68;;;25.30;59.40;;;;;;5018325;28;20105;-42
2021/07/16 00:36:03;;;;;;;13.05;8.05;;;25.30;59.30;;;;;;5018180;28;20533;-43
2021/07/16 00:38:28;;;;;;;11.63;8.00;;;25.30;59.40;;;;;;5018531;28;20156;-42
2021/07/16 00:40:54;;;;;;;10.90;7.95;;;25.30;59.50;;;;;;5018446;28;20121;-43
2021/07/16 00:43:20;;;;;;;13.77;8.70;;;25.30;59.50;;;;;;5018315;28;20049;-43
2021/07/16 00:45:46;;;;;;;13.60;8.10;;;25.20;59.30;;;;;;5018463;28;20036;-42
2021/07/16 00:48:11;;;;;;;14.05;8.98;;;25.20;59.30;;;;;;5018096;28;20038;-47
2021/07/16 00:50:40;;;;;;;13.40;8.48;;;25.20;59.50;;;;;;5018145;28;20029;-45
2021/07/16 00:53:09;;;;;;;14.90;8.90;;;25.20;60.20;;;;;;5018189;28;20034;-44
2021/07/16 00:55:36;;;;;;;10.05;7.78;;;25.20;59.80;;;;;;5017871;28;20406;-43
2021/07/16 00:58:02;;;;;;;11.52;8.15;;;25.20;59.80;;;;;;5018137;28;20060;-44
2021/07/16 01:00:28;;;;;;;12.35;8.80;;;25.20;60.00;;;;;;5017897;28;20053;-42
2021/07/16 01:02:54;;;;;;;13.48;8.43;;;25.20;60.00;;;;;;5018135;28;20030;-42
2021/07/16 01:05:21;;;;;;;12.13;8.10;;;25.10;60.00;;;;;;5017862;28;20022;-43
2021/07/16 01:07:48;;;;;;;15.43;8.20;;;25.10;60.00;;;;;;5017983;28;20033;-43
2021/07/16 01:10:14;;;;;;;15.15;8.45;;;25.10;60.10;;;;;;5017475;28;20033;-44
2021/07/16 01:12:42;;;;;;;14.60;8.02;;;25.10;60.20;;;;;;5017727;28;20064;-43
2021/07/16 01:15:10;;;;;;;11.82;8.50;;;25.10;60.30;;;;;;5017105;28;20038;-43
2021/07/16 01:17:36;;;;;;;12.85;8.15;;;25.10;60.30;;;;;;5017937;28;20030;-43
2021/07/16 01:20:10;;;;;;;12.18;8.40;;;25.10;60.40;;;;;;5017368;28;20029;-42
2021/07/16 01:22:39;;;;;;;12.82;8.40;;;25.10;60.70;;;;;;5017620;28;20034;-43
2021/07/16 01:25:11;;;;;;;9.98;8.43;;;25.10;60.80;;;;;;5017365;28;20038;-42
2021/07/16 01:27:39;;;;;;;12.32;8.27;;;25.00;60.70;;;;;;5017523;28;20096;-43
2021/07/16 01:30:08;;;;;;;10.10;8.60;;;25.00;60.90;;;;;;5017305;28;20037;-43
2021/07/16 01:32:34;;;;;;;13.50;8.05;;;25.00;60.90;;;;;;5017382;28;20045;-43
2021/07/16 01:35:00;;;;;;;14.23;8.48;;;25.00;60.90;;;;;;5016984;28;20029;-45
2021/07/16 01:37:26;;;;;;;13.05;8.90;;;25.00;61.10;;;;;;5017338;28;20030;-44
2021/07/16 01:39:51;;;;;;;10.38;8.77;;;25.00;61.20;;;;;;5016925;28;20112;-44
2021/07/16 01:42:18;;;;;;;11.15;8.38;;;24.90;61.20;;;;;;5017108;28;20353;-43
2021/07/16 01:44:44;;;;;;;10.75;8.55;;;24.90;61.20;;;;;;5016873;28;20046;-44
2021/07/16 01:47:10;;;;;;;13.27;9.20;;;24.90;61.40;;;;;;5017079;28;20025;-43
2021/07/16 01:49:36;;;;;;;11.48;7.88;;;24.90;61.30;;;;;;5017139;28;20369;-44
2021/07/16 01:52:03;;;;;;;8.73;7.57;;;24.90;61.30;;;;;;5017003;28;20317;-43
2021/07/16 01:54:29;;;;;;;14.88;8.05;;;24.80;61.20;;;;;;5017105;28;20034;-44
2021/07/16 01:56:54;;;;;;;15.82;8.73;;;24.80;61.30;;;;;;5016793;28;20033;-43
2021/07/16 01:59:20;;;;;;;17.23;8.88;;;24.80;61.20;;;;;;5016933;28;20026;-42
2021/07/16 02:01:46;;;;;;;15.32;8.00;;;24.80;61.00;;;;;;5017064;28;20030;-44
2021/07/16 02:04:11;;;;;;;10.90;7.47;;;24.80;60.90;;;;;;5017031;28;20390;-42
2021/07/16 02:06:38;;;;;;;12.40;7.90;;;24.80;60.80;;;;;;5017083;28;20139;-42
2021/07/16 02:09:08;;;;;;;12.63;7.78;;;24.80;60.90;;;;;;5016759;28;20042;-42
2021/07/16 02:11:35;;;;;;;14.82;7.55;;;24.80;60.70;;;;;;5016788;28;20038;-43
2021/07/16 02:14:01;;;;;;;11.93;8.15;;;24.80;60.70;;;;;;5016158;28;20041;-43
2021/07/16 02:16:27;;;;;;;9.73;6.97;;;24.80;60.70;;;;;;5016318;28;20422;-44
2021/07/16 02:18:56;;;;;;;12.48;7.50;;;24.80;60.70;;;;;;5016643;28;20045;-43
2021/07/16 02:21:22;;;;;;;13.23;7.90;;;24.80;60.80;;;;;;5016386;28;20034;-42
2021/07/16 02:23:49;;;;;;;14.48;7.45;;;24.80;60.80;;;;;;5016506;28;20300;-43
2021/07/16 02:26:15;;;;;;;12.98;7.95;;;24.80;60.90;;;;;;5016747;28;20061;-44
2021/07/16 02:28:41;;;;;;;9.75;7.35;;;24.80;61.10;;;;;;5016230;28;20100;-43
2021/07/16 02:31:12;;;;;;;21.42;7.43;;;24.80;60.90;;;;;;5016304;28;20149;-43
2021/07/16 02:33:38;;;;;;;14.38;7.82;;;24.80;60.90;;;;;;5016034;28;20396;-44
2021/07/16 02:36:06;;;;;;;8.55;7.13;;;24.90;60.90;;;;;;5016434;28;20409;-44
2021/07/16 02:38:32;;;;;;;10.18;7.15;;;24.90;60.90;;;;;;5016302;28;20056;-47
2021/07/16 02:40:57;;;;;;;9.98;7.25;;;24.90;61.10;;;;;;5016463;28;20326;-45
2021/07/16 02:43:23;;;;;;;9.85;7.82;;;25.00;61.10;;;;;;5016038;28;20069;-44
2021/07/16 02:45:50;;;;;;;14.35;7.28;;;25.00;61.30;;;;;;5016068;28;20025;-46
2021/07/16 02:48:16;;;;;;;11.40;8.57;;;25.00;61.30;;;;;;5016166;28;20065;-43
2021/07/16 02:50:44;;;;;;;12.00;7.97;;;25.00;61.50;;;;;;5016626;28;20397;-45
2021/07/16 02:53:12;;;;;;;13.07;7.47;;;25.00;61.50;;;;;;5015244;28;20413;-44
2021/07/16 02:55:39;;;;;;;9.77;8.20;;;25.10;61.70;;;;;;5015815;28;20037;-43
2021/07/16 02:58:09;;;;;;;13.27;10.60;;;25.00;61.80;;;;;;5016005;28;20033;-44
2021/07/16 03:00:36;;;;;;;14.82;8.50;;;25.00;61.80;;;;;;5016201;28;20125;-42
2021/07/16 03:03:02;;;;;;;13.95;8.38;;;25.00;61.80;;;;;;5015770;28;20072;-44
2021/07/16 03:05:35;;;;;;;10.80;8.35;;;25.00;61.90;;;;;;5015721;28;20064;-42
2021/07/16 03:08:01;;;;;;;14.57;8.23;;;25.10;62.10;;;;;;5015982;28;20038;-43
2021/07/16 03:10:30;;;;;;;11.95;8.93;;;25.10;62.00;;;;;;5016021;28;20101;-43
2021/07/16 03:12:57;;;;;;;13.00;9.23;;;25.10;62.00;;;;;;5016130;28;20087;-43
2021/07/16 03:15:25;;;;;;;17.67;8.90;;;25.10;62.10;;;;;;5015339;28;20389;-43
2021/07/16 03:17:51;;;;;;;10.32;8.60;;;25.10;62.10;;;;;;5015861;28;20029;-42
2021/07/16 03:20:23;;;;;;;13.95;8.93;;;25.10;62.30;;;;;;5015581;28;20034;-42
2021/07/16 03:22:50;;;;;;;17.45;9.30;;;25.10;62.50;;;;;;5015764;28;20029;-45
2021/07/16 03:25:18;;;;;;;10.65;8.57;;;25.10;62.50;;;;;;5015412;28;20037;-43
2021/07/16 03:27:45;;;;;;;13.07;8.52;;;25.20;62.70;;;;;;5015762;28;20305;-43
2021/07/16 03:30:20;;;;;;;16.65;8.98;;;25.20;62.70;;;;;;5015573;28;20038;-43
2021/07/16 03:32:46;;;;;;;15.77;8.73;;;25.20;62.80;;;;;;5015913;28;20068;-43
2021/07/16 03:35:13;;;;;;;15.43;8.80;;;25.30;63.10;;;;;;5015111;28;20121;-43
2021/07/16 03:37:40;;;;;;;12.57;7.95;;;25.30;63.10;;;;;;5015718;28;20029;-44
2021/07/16 03:40:08;;;;;;;13.15;8.20;;;25.40;63.00;;;;;;5015260;28;20049;-45
2021/07/16 03:42:34;;;;;;;16.40;9.10;;;25.40;62.90;;;;;;5015724;28;20017;-43
2021/07/16 03:45:00;;;;;;;13.32;8.38;;;25.50;63.00;;;;;;5015182;28;20098;-44
2021/07/16 03:47:25;;;;;;;14.00;8.63;;;25.50;62.90;;;;;;5015339;28;20022;-42
2021/07/16 03:49:51;;;;;;;9.85;7.28;;;25.60;62.80;;;;;;5015407;28;20030;-42
2021/07/16 03:52:17;;;;;;;10.68;6.75;;;25.60;62.50;;;;;;5015639;28;20032;-43
2021/07/16 03:54:42;;;;;;;10.60;6.55;;;25.70;61.00;;;;;;5015310;28;20030;-43
2021/07/16 03:57:08;;;;;;;10.57;6.15;;;25.70;61.10;;;;;;5015199;28;20026;-42
2021/07/16 03:59:35;;;;;;;8.70;6.28;;;25.80;60.90;;;;;;5015624;28;20030;-44
2021/07/16 04:02:02;;;;;;;16.05;8.18;;;25.90;60.20;;;;;;5015844;28;20101;-43
2021/07/16 04:04:28;;;;;;;11.93;6.20;;;26.00;60.10;;;;;;5016904;28;20046;-43
2021/07/16 04:06:55;;;;;;;17.48;6.40;;;26.10;60.20;;;;;;5019064;28;20429;-46
2021/07/16 04:09:29;;;;;;;12.10;6.68;;;26.20;60.20;;;;;;5018911;28;20060;-42
2021/07/16 04:12:30;;;;;;;7.25;5.38;;;26.20;59.10;;;;;;5019117;28;20069;-43
2021/07/16 04:14:56;;;;;;;8.90;5.28;;;26.30;59.00;;;;;;4957622;28;20055;-43
2021/07/16 04:17:24;;;;;;;10.57;5.63;;;26.40;57.70;;;;;;5006085;28;20092;-44
2021/07/16 04:19:50;;;;;;;12.30;6.50;;;26.50;58.50;;;;;;5018194;28;20073;-43
2021/07/16 04:22:19;;;;;;;14.57;6.00;;;26.60;57.00;;;;;;5018858;28;20018;-45
2021/07/16 04:24:45;;;;;;;12.20;5.50;;;26.70;56.60;;;;;;5018124;28;20030;-42
2021/07/16 04:27:12;;;;;;;16.00;5.80;;;26.80;56.40;;;;;;5018642;28;20352;-43
2021/07/16 04:29:39;;;;;;;8.35;5.05;;;26.90;56.10;;;;;;5018102;28;20068;-44
2021/07/16 04:32:06;;;;;;;7.93;4.88;;;27.00;55.80;;;;;;5018656;28;20117;-45
2021/07/16 04:34:35;;;;;;;11.93;5.68;;;27.10;56.00;;;;;;5018407;28;20350;-44
2021/07/16 04:37:02;;;;;;;17.08;4.35;;;27.20;56.00;;;;;;5018039;28;20046;-44
2021/07/16 04:39:28;;;;;;;7.80;4.85;;;27.30;55.00;;;;;;5018249;28;20302;-45
2021/07/16 04:41:54;;;;;;;10.98;5.40;;;27.40;55.20;;;;;;5018562;28;20037;-46
2021/07/16 04:44:21;;;;;;;10.55;5.35;;;27.40;54.50;;;;;;5017781;28;20030;-45
2021/07/16 04:46:47;;;;;;;9.52;5.30;;;27.50;54.30;;;;;;5018087;28;20042;-44
2021/07/16 04:49:13;;;;;;;14.43;7.78;;;27.60;54.20;;;;;;5017960;28;20026;-45
2021/07/16 04:51:39;;;;;;;10.23;6.88;;;27.60;54.30;;;;;;5018150;28;20117;-44
2021/07/16 04:54:06;;;;;;;10.70;5.40;;;27.70;54.40;;;;;;5018061;28;20036;-43
2021/07/16 04:56:33;;;;;;;12.75;6.40;;;27.80;54.10;;;;;;5017722;28;20065;-42
2021/07/16 04:58:58;;;;;;;14.30;6.57;;;27.80;53.70;;;;;;5017683;28;20034;-42
2021/07/16 05:01:26;;;;;;;14.50;6.00;;;27.90;54.30;;;;;;5017783;28;20034;-44
2021/07/16 05:03:53;;;;;;;10.20;5.10;;;28.00;54.40;;;;;;5017493;28;20084;-44
2021/07/16 05:06:20;;;;;;;19.98;9.25;;;28.00;54.80;;;;;;5017735;28;20062;-43
2021/07/16 05:08:45;;;;;;;36.97;6.72;;;28.10;54.30;;;;;;5017309;28;20029;-44
2021/07/16 05:11:12;;;;;;;8.00;5.40;;;28.20;54.00;;;;;;5016915;28;20037;-43
2021/07/16 05:13:39;;;;;;;10.27;5.90;;;28.20;53.60;;;;;;5017393;28;20029;-49
2021/07/16 05:16:09;;;;;;;12.88;5.15;;;28.30;53.90;;;;;;5016711;28;20121;-48
2021/07/16 05:18:35;;;;;;;;;;;28.30;53.60;;;;;;5017833;28;20030;-47
2021/07/16 05:21:01;;;;;;;15.82;5.70;;;28.40;54.00;;;;;;5017391;28;19921;-44
2021/07/16 05:23:28;;;;;;;11.40;5.07;;;28.40;54.00;;;;;;5017162;28;20064;-48
2021/07/16 05:25:54;;;;;;;8.70;5.47;;;28.40;53.50;;;;;;5017432;28;20045;-46
2021/07/16 05:28:20;;;;;;;14.40;4.82;;;28.50;53.80;;;;;;5017448;28;20124;-45
2021/07/16 05:30:46;;;;;;;9.23;4.97;;;28.60;53.80;;;;;;5017277;28;20418;-48
2021/07/16 05:33:12;;;;;;;6.57;4.90;;;28.60;54.00;;;;;;5017030;28;20116;-49
2021/07/16 05:35:38;;;;;;;9.10;5.63;;;28.70;54.10;;;;;;5016991;28;20033;-47
2021/07/16 05:38:05;;;;;;;7.68;5.30;;;28.80;54.40;;;;;;5017524;28;20032;-48
2021/07/16 05:40:31;;;;;;;14.27;5.90;;;28.80;54.40;;;;;;5016756;28;20061;-46
2021/07/16 05:42:58;;;;;;;7.38;4.95;;;28.90;53.40;;;;;;5017143;28;20041;-47
2021/07/16 05:45:24;;;;;;;9.95;5.05;;;29.00;54.00;;;;;;5016928;28;20057;-51
2021/07/16 05:47:51;;;;;;;8.75;4.97;;;29.00;53.80;;;;;;5017110;28;20299;-49
2021/07/16 05:50:16;;;;;;;9.27;5.00;;;29.00;53.90;;;;;;5016659;28;20034;-51
2021/07/16 05:52:42;;;;;;;7.13;4.75;;;29.10;54.10;;;;;;5016696;28;20357;-52
2021/07/16 05:55:08;;;;;;;15.20;8.52;;;29.20;54.40;;;;;;5016593;28;20030;-49
2021/07/16 05:57:34;;;;;;;17.17;6.60;;;29.20;54.10;;;;;;5016641;28;20030;-49
2021/07/16 06:00:00;;;;;;;9.82;6.18;;;29.20;53.90;;;;;;5016135;28;20034;-49
2021/07/16 06:02:26;;;;;;;7.68;5.28;;;29.30;54.00;;;;;;5016631;28;20026;-48
2021/07/16 06:04:51;;;;;;;9.38;5.13;;;29.30;54.40;;;;;;5016206;28;20034;-47
2021/07/16 06:07:17;;;;;;;12.75;5.60;;;29.30;54.60;;;;;;5016169;28;20059;-46
2021/07/16 06:09:43;;;;;;;9.55;5.55;;;29.40;54.50;;;;;;5016115;28;20053;-48
2021/07/16 06:12:09;;;;;;;10.65;5.60;;;29.40;53.80;;;;;;5015419;28;20079;-48
2021/07/16 06:14:35;;;;;;;13.65;5.78;;;29.40;54.30;;;;;;5015827;28;20097;-46
2021/07/16 06:17:01;;;;;;;12.10;5.57;;;29.40;53.90;;;;;;5016184;28;20105;-52
2021/07/16 06:19:26;;;;;;;11.07;6.20;;;29.50;53.70;;;;;;5015515;28;20040;-50
2021/07/16 06:21:52;;;;;;;14.00;5.85;;;29.50;53.90;;;;;;5016426;28;20256;-48
2021/07/16 06:24:18;;;;;;;8.32;5.32;;;29.50;54.60;;;;;;5016280;28;20105;-50
2021/07/16 06:26:44;;;;;;;17.42;7.18;;;29.50;53.80;;;;;;5016119;28;20042;-48
2021/07/16 06:29:10;;;;;;;10.13;6.07;;;29.60;53.70;;;;;;5016030;28;20038;-51
2021/07/16 06:31:36;;;;;;;11.35;6.15;;;29.60;54.50;;;;;;5016021;28;20328;-45
2021/07/16 06:34:03;;;;;;;11.07;6.18;;;29.60;54.80;;;;;;5015804;28;20038;-49
2021/07/16 06:36:29;;;;;;;9.80;6.18;;;29.70;54.80;;;;;;5015746;28;20101;-51
2021/07/16 06:38:55;;;;;;;8.85;6.65;;;29.70;54.60;;;;;;5015995;28;20127;-49
2021/07/16 06:41:20;;;;;;;16.50;7.93;;;29.70;54.30;;;;;;5015808;28;20077;-48
2021/07/16 06:43:46;;;;;;;9.27;6.25;;;29.70;54.00;;;;;;5015920;28;20033;-48
2021/07/16 06:46:16;;;;;;;11.93;6.90;;;29.70;54.20;;;;;;5016011;28;20064;-51
2021/07/16 06:48:45;;;;;;;12.30;6.78;;;29.80;54.20;;;;;;5015635;28;20113;-50
2021/07/16 06:51:11;;;;;;;8.85;6.13;;;29.80;53.80;;;;;;5015505;28;20037;-52
2021/07/16 06:53:37;;;;;;;8.75;5.75;;;29.90;54.20;;;;;;5015804;28;20045;-44
2021/07/16 06:56:03;;;;;;;11.77;6.75;;;29.90;54.20;;;;;;5015003;28;20029;-45
2021/07/16 06:58:29;;;;;;;8.90;5.75;;;30.00;53.70;;;;;;5015543;28;20456;-46
2021/07/16 07:00:55;;;;;;;11.90;5.93;;;30.00;54.00;;;;;;5015729;28;20030;-48
2021/07/16 07:03:25;;;;;;;14.32;6.70;;;30.00;54.30;;;;;;5015553;28;20030;-49
2021/07/16 07:05:54;;;;;;;;;;;30.10;54.70;;;;;;5016328;28;20026;-50
2021/07/16 07:08:20;;;;;;;7.88;6.18;;;30.10;54.50;;;;;;5015789;28;19909;-45
2021/07/16 07:10:45;;;;;;;7.45;6.07;;;30.10;54.60;;;;;;5015233;28;20380;-53
2021/07/16 07:13:11;;;;;;;8.40;6.47;;;30.10;54.90;;;;;;5015326;28;20030;-46
2021/07/16 07:15:37;;;;;;;11.77;6.65;;;30.20;55.10;;;;;;5015327;28;20461;-47
2021/07/16 07:18:04;;;;;;;11.93;7.25;;;30.20;53.90;;;;;;5015508;28;20429;-48
2021/07/16 07:20:30;;;;;;;15.02;6.70;;;30.20;54.30;;;;;;5015679;28;20339;-50
2021/07/16 07:22:56;;;;;;;11.40;6.43;;;30.30;53.10;;;;;;5015206;28;20033;-51
2021/07/16 07:25:22;;;;;;;9.52;7.30;;;30.30;52.10;;;;;;5014878;28;20033;-48
2021/07/16 07:27:47;;;;;;;11.45;7.20;;;30.30;52.50;;;;;;5015524;28;20139;-50
2021/07/16 07:30:13;;;;;;;10.55;7.00;;;30.20;53.10;;;;;;5015337;28;20473;-53
2021/07/16 07:32:39;;;;;;;14.73;7.00;;;30.20;52.80;;;;;;5015594;28;20109;-49
2021/07/16 07:35:07;;;;;;;10.40;6.85;;;30.20;53.50;;;;;;5010474;28;20392;-45
2021/07/16 07:37:33;;;;;;;15.27;7.80;;;30.30;53.90;;;;;;5015381;28;20034;-51
2021/07/16 07:39:59;;;;;;;13.27;7.82;;;30.30;54.30;;;;;;5016868;28;20053;-45
2021/07/16 07:42:25;;;;;;;13.13;7.43;;;30.40;53.60;;;;;;5019249;28;20053;-49
2021/07/16 07:44:52;;;;;;;14.63;7.43;;;30.40;53.40;;;;;;5017952;28;20033;-47
2021/07/16 07:47:18;;;;;;;16.40;6.63;;;30.40;54.10;;;;;;5016911;28;20418;-48
2021/07/16 07:49:44;;;;;;;13.75;7.90;;;30.50;53.70;;;;;;5017790;28;20081;-49
2021/07/16 07:52:10;;;;;;;12.55;7.80;;;30.50;53.20;;;;;;5018632;28;20052;-50
2021/07/16 07:54:35;;;;;;;11.15;7.57;;;30.50;54.40;;;;;;5017963;28;20329;-48
2021/07/16 07:57:01;;;;;;;14.55;7.10;;;30.60;54.50;;;;;;5018076;28;20354;-49
2021/07/16 07:59:27;;;;;;;13.15;7.60;;;30.60;54.00;;;;;;5017950;28;20121;-45
2021/07/16 08:01:52;;;;;;;12.98;7.93;;;30.60;53.80;;;;;;5018204;28;20377;-46
2021/07/16 08:04:18;;;;;;;13.30;7.93;;;30.60;53.90;;;;;;5017599;28;20365;-47
2021/07/16 08:06:44;;;;;;;12.75;7.57;;;30.60;54.70;;;;;;5018461;28;20456;-47
2021/07/16 08:09:10;;;;;;;13.27;7.53;;;30.60;54.60;;;;;;5018164;28;20456;-46
2021/07/16 08:11:36;;;;;;;12.40;7.07;;;30.60;54.80;;;;;;5018639;28;20296;-47
2021/07/16 08:14:03;;;;;;;14.13;8.85;;;30.70;55.10;;;;;;5016566;28;20064;-48
2021/07/16 08:16:29;;;;;;;13.65;8.18;;;30.70;54.60;;;;;;5018221;28;20406;-47
2021/07/16 08:18:55;;;;;;;12.10;8.25;;;30.70;54.60;;;;;;5018258;28;20037;-48
2021/07/16 08:21:23;;;;;;;12.65;8.25;;;30.70;54.30;;;;;;5018358;28;20148;-47
2021/07/16 08:23:49;;;;;;;10.93;7.55;;;30.70;54.70;;;;;;5017965;28;20033;-50
2021/07/16 08:26:18;;;;;;;13.45;7.05;;;30.70;54.50;;;;;;5018360;28;20026;-50
2021/07/16 08:28:44;;;;;;;8.82;7.18;;;30.80;55.50;;;;;;5018154;28;20042;-53
2021/07/16 08:31:10;;;;;;;11.60;7.18;;;30.80;54.70;;;;;;5017994;28;20052;-46
2021/07/16 08:33:35;;;;;;;13.63;7.40;;;30.80;54.00;;;;;;5017779;28;20026;-48
2021/07/16 08:36:01;;;;;;;12.27;7.20;;;30.80;54.30;;;;;;5017932;28;20122;-41
2021/07/16 08:38:27;;;;;;;13.60;7.50;;;30.80;53.80;;;;;;5016605;28;20021;-39
2021/07/16 08:40:53;;;;;;;10.45;7.20;;;30.80;53.50;;;;;;5017929;28;20386;-37
2021/07/16 08:43:22;;;;;;;12.50;7.57;;;30.80;54.40;;;;;;5017481;28;20092;-40
2021/07/16 08:45:50;;;;;;;13.07;7.63;;;30.90;55.60;;;;;;5017818;28;20109;-36
2021/07/16 08:48:16;;;;;;;9.35;6.80;;;30.90;55.00;;;;;;5016393;28;20034;-41
2021/07/16 08:50:42;;;;;;;8.60;7.10;;;30.90;55.70;;;;;;5016613;28;20329;-41
2021/07/16 08:53:10;;;;;;;15.00;7.50;;;31.00;55.00;;;;;;5017501;28;20033;-37
2021/07/16 08:55:37;;;;;;;9.93;7.18;;;31.10;55.30;;;;;;5017649;28;20034;-37
2021/07/16 08:58:04;;;;;;;10.07;6.43;;;31.10;54.40;;;;;;5017179;28;20034;-37
2021/07/16 09:00:30;;;;;;;12.25;7.43;;;31.20;55.00;;;;;;5017239;28;20038;-37
2021/07/16 09:02:59;;;;;;;12.15;7.10;;;31.20;54.70;;;;;;5017735;28;20030;-37
2021/07/16 09:05:40;;;;;;;13.15;6.80;;;31.30;53.30;;;;;;5017344;28;20042;-37
2021/07/16 09:08:26;;;;;;;15.02;7.70;;;31.40;52.40;;;;;;5017224;28;20118;-41
2021/07/16 09:10:56;;;;;;;9.63;7.05;;;31.50;52.30;;;;;;5017123;28;20448;-40
2021/07/16 09:13:23;;;;;;;10.35;7.13;;;31.60;52.10;;;;;;5017365;28;20041;-41
2021/07/16 09:15:56;;;;;;;12.43;8.07;;;31.70;51.90;;;;;;5013767;28;20193;-37
2021/07/16 09:18:25;;;;;;;11.52;8.38;;;31.70;51.70;;;;;;5016220;28;20456;-37
2021/07/16 09:21:02;;;;;;;8.80;7.32;;;31.70;51.50;;;;;;5016706;28;20073;-41
2021/07/16 09:23:46;;;;;;;7.63;6.78;;;31.80;51.60;;;;;;5017227;28;20306;-35
2021/07/16 09:26:16;;;;;;;14.48;7.70;;;31.80;52.00;;;;;;5016490;28;20084;-36
2021/07/16 09:28:44;;;;;;;12.00;7.10;;;31.80;51.70;;;;;;5017100;28;20040;-37
2021/07/16 09:31:16;;;;;;;16.17;7.18;;;31.80;52.00;;;;;;5015733;28;20026;-38
2021/07/16 09:33:44;;;;;;;14.60;8.40;;;31.90;51.60;;;;;;5017028;28;20029;-37
2021/07/16 09:36:10;;;;;;;8.50;7.38;;;32.00;51.70;;;;;;5016683;28;20037;-35
2021/07/16 09:38:36;;;;;;;13.60;6.95;;;32.00;51.90;;;;;;5016555;28;20030;-38
2021/07/16 09:41:08;;;;;;;10.80;6.78;;;32.00;52.50;;;;;;5016158;28;20100;-38
2021/07/16 09:43:34;;;;;;;7.70;6.90;;;32.00;52.20;;;;;;5016967;28;20133;-36
2021/07/16 09:46:06;;;;;;;8.75;6.68;;;32.10;52.60;;;;;;5016345;28;20041;-35
2021/07/16 09:48:41;;;;;;;9.40;7.07;;;32.10;52.70;;;;;;5016387;28;20061;-38
2021/07/16 09:51:19;;;;;;;7.90;6.55;;;32.20;52.20;;;;;;5016382;28;20046;-37
2021/07/16 09:53:55;;;;;;;9.05;6.70;;;32.20;52.30;;;;;;5016300;28;20036;-41
2021/07/16 09:56:29;;;;;;;12.55;6.70;;;32.20;52.50;;;;;;5016386;28;20322;-37
2021/07/16 09:59:05;;;;;;;9.68;7.85;;;32.20;53.00;;;;;;5015945;28;20037;-40
2021/07/16 10:01:33;;;;;;;10.27;7.35;;;32.20;52.40;;;;;;5015957;28;20041;-37
2021/07/16 10:04:00;;;;;;;9.73;6.97;;;32.20;52.10;;;;;;5016237;28;20030;-37
2021/07/16 10:06:28;;;;;;;11.05;8.25;;;32.20;52.00;;;;;;5016170;28;20410;-37
2021/07/16 10:08:55;;;;;;;10.63;8.07;;;32.20;51.60;;;;;;5016053;28;20030;-40
2021/07/16 10:11:22;;;;;;;9.50;7.50;;;32.20;51.70;;;;;;5016123;28;20033;-40
2021/07/16 10:13:50;;;;;;;12.00;7.55;;;32.30;51.50;;;;;;5015586;28;20064;-37
2021/07/16 10:16:17;;;;;;;8.20;6.90;;;32.30;51.30;;;;;;5015318;28;20369;-37
2021/07/16 10:18:43;;;;;;;7.60;6.80;;;32.30;51.40;;;;;;5016201;28;20090;-37
2021/07/16 10:21:09;;;;;;;8.90;7.10;;;32.40;51.30;;;;;;5016052;28;20026;-37
2021/07/16 10:23:38;;;;;;;9.48;7.15;;;32.40;51.50;;;;;;5016356;28;20378;-40
2021/07/16 10:26:09;;;;;;;8.80;7.45;;;32.40;52.00;;;;;;5016338;28;20109;-40
2021/07/16 10:28:43;;;;;;;8.90;7.00;;;32.50;51.30;;;;;;5016064;28;20113;-39
2021/07/16 10:31:33;;;;;;;9.27;6.70;;;32.60;51.80;;;;;;5011563;28;20038;-38
2021/07/16 10:34:03;;;;;;;12.52;6.80;;;32.60;51.80;;;;;;5015768;28;20084;-37
2021/07/16 10:36:44;;;;;;;9.50;6.90;;;32.70;52.00;;;;;;5015818;28;20037;-37
2021/07/16 10:39:13;;;;;;;8.90;6.95;;;32.80;51.90;;;;;;5015857;28;20318;-40
2021/07/16 10:41:41;;;;;;;9.30;7.78;;;32.80;51.40;;;;;;5015776;28;20030;-40
2021/07/16 10:44:07;;;;;;;8.40;7.28;;;32.80;51.30;;;;;;5015701;28;20022;-37
2021/07/16 10:46:36;;;;;;;10.35;7.07;;;32.80;51.40;;;;;;5015465;28;20044;-37
2021/07/16 10:49:06;;;;;;;11.02;7.43;;;32.80;51.40;;;;;;5015975;28;20108;-38
2021/07/16 10:51:34;;;;;;;14.95;7.88;;;32.90;51.30;;;;;;5014478;28;20037;-40
2021/07/16 10:54:03;;;;;;;12.30;7.18;;;32.90;51.10;;;;;;5015339;28;20346;-40
2021/07/16 10:56:41;;;;;;;10.45;7.40;;;33.00;51.50;;;;;;5014398;28;20041;-37
2021/07/16 10:59:08;;;;;;;9.88;6.43;;;33.00;51.20;;;;;;5015314;28;20033;-40
2021/07/16 11:01:37;;;;;;;9.05;7.15;;;33.10;51.20;;;;;;5015387;28;20045;-38
2021/07/16 11:04:07;;;;;;;8.25;6.57;;;33.10;51.20;;;;;;5015452;28;20053;-40
2021/07/16 11:06:51;;;;;;;9.07;7.45;;;33.20;50.40;;;;;;5015083;28;20422;-41
2021/07/16 11:09:38;;;;;;;10.60;6.85;;;33.20;50.20;;;;;;5014322;28;20034;-41
2021/07/16 11:12:33;;;;;;;9.48;6.22;;;33.30;50.20;;;;;;5014729;28;20040;-41
2021/07/16 11:14:59;;;;;;;9.30;7.40;;;33.40;50.00;;;;;;5013727;28;20050;-41
2021/07/16 11:17:29;;;;;;;11.13;7.18;;;33.40;50.00;;;;;;5015231;28;20076;-38
2021/07/16 11:20:12;;;;;;;9.15;7.07;;;33.50;49.80;;;;;;5015023;28;20361;-40
2021/07/16 11:22:57;;;;;;;9.75;6.93;;;33.60;49.70;;;;;;5015611;28;20103;-41
2021/07/16 11:25:23;;;;;;;12.23;7.13;;;33.60;49.70;;;;;;5015072;28;20057;-38
2021/07/16 11:27:49;;;;;;;10.70;7.22;;;33.60;49.90;;;;;;5015469;28;20068;-38
2021/07/16 11:30:15;;;;;;;9.85;7.18;;;33.60;49.80;;;;;;5014970;28;20034;-38
2021/07/16 11:32:40;;;;;;;10.77;7.57;;;33.60;49.70;;;;;;5015358;28;20036;-38
2021/07/16 11:35:07;;;;;;;7.85;7.05;;;33.60;50.20;;;;;;5014635;28;20022;-37
2021/07/16 11:37:35;;;;;;;11.80;6.70;;;33.70;50.20;;;;;;5015135;28;20030;-38
2021/07/16 11:40:04;;;;;;;8.43;7.38;;;33.80;50.20;;;;;;5014141;28;20478;-39
2021/07/16 11:42:31;;;;;;;9.77;7.20;;;34.00;50.50;;;;;;5015428;28;20046;-36
2021/07/16 11:44:57;;;;;;;10.35;7.20;;;34.10;50.20;;;;;;5014766;28;20426;-39
2021/07/16 11:47:27;;;;;;;8.57;6.65;;;34.20;49.40;;;;;;5015604;28;20036;-37
2021/07/16 11:49:57;;;;;;;9.68;6.97;;;34.40;49.60;;;;;;5015242;28;20430;-39
2021/07/16 11:52:25;;;;;;;10.20;7.70;;;34.50;49.30;;;;;;5010720;28;20034;-38
2021/07/16 11:54:52;;;;;;;14.98;8.60;;;34.60;48.80;;;;;;5015156;28;20038;-39
2021/07/16 11:57:19;;;;;;;14.05;8.13;;;34.80;48.10;;;;;;5014759;28;20030;-36
2021/07/16 11:59:53;;;;;;;12.75;7.53;;;34.90;47.70;;;;;;5014679;28;20034;-36
2021/07/16 12:02:20;;;;;;;15.05;8.10;;;35.10;47.90;;;;;;5013687;28;20104;-40
2021/07/16 12:04:48;;;;;;;14.35;9.20;;;35.20;47.50;;;;;;5014577;28;20036;-40
2021/07/16 12:07:15;;;;;;;12.05;8.20;;;35.40;47.10;;;;;;5014559;28;20034;-37
2021/07/16 12:09:48;;;;;;;9.60;8.45;;;35.50;47.40;;;;;;5014605;28;20350;-41
2021/07/16 12:12:17;;;;;;;16.08;8.10;;;35.70;47.20;;;;;;5014421;28;20350;-41
2021/07/16 12:14:45;;;;;;;10.02;8.23;;;35.80;46.40;;;;;;5014616;28;20065;-37
2021/07/16 12:17:12;;;;;;;10.70;8.30;;;35.90;46.30;;;;;;5014401;28;20034;-38
2021/07/16 12:19:38;;;;;;;12.05;7.93;;;36.10;46.10;;;;;;5014935;28;20099;-42
2021/07/16 12:22:04;;;;;;;12.00;7.90;;;36.20;46.10;;;;;;5013450;28;20247;-38
2021/07/16 12:24:30;;;;;;;10.75;8.00;;;36.30;45.90;;;;;;5015613;28;20083;-37
2021/07/16 12:27:08;;;;;;;8.50;7.28;;;36.40;45.70;;;;;;5017921;28;20322;-42
2021/07/16 12:29:34;;;;;;;11.27;8.60;;;36.40;45.60;;;;;;5018190;28;20131;-42
2021/07/16 12:32:00;;;;;;;13.20;9.00;;;36.50;45.20;;;;;;5017749;28;20109;-37
2021/07/16 12:34:27;;;;;;;11.30;8.73;;;36.50;44.80;;;;;;5018391;28;20148;-42
2021/07/16 12:37:11;;;;;;;10.25;8.30;;;36.60;45.00;;;;;;5017829;28;20112;-42
2021/07/16 12:39:38;;;;;;;18.80;10.35;;;36.70;45.10;;;;;;5017609;28;20065;-38
2021/07/16 12:42:08;;;;;;;13.00;10.10;;;36.70;46.10;;;;;;5017527;28;20029;-38
2021/07/16 12:44:34;;;;;;;11.98;10.05;;;36.80;46.50;;;;;;5017570;28;20025;-41